Time;durP1;ratioP1;P1;durP2;ratioP2;P2;SDS_P1;SDS_P2;PMS_P1;PMS_P2;Temp;Humidity;BMP_temperature;BMP_pressure;BME280_temperature;BME280_humidity;BME280_pressure;Samples;Min_cycle;Max_cycle;Signal;HPM_P1;HPM_P2
2022/09/17 00:00:38;;;;;;;0.30;0.30;;;;;;;;;;1878270;75;26230;-59
2022/09/17 00:03:06;;;;;;;0.30;0.30;;;;;;;;;;1879391;74;26235;-59
2022/09/17 00:05:36;;;;;;;0.20;0.20;;;;;;;;;;1878835;76;26677;-59
2022/09/17 00:08:03;;;;;;;0.30;0.30;;;;;;;;;;1858223;76;26376;-59
2022/09/17 00:10:32;;;;;;;0.28;0.28;;;;;;;;;;1858434;76;26270;-60
2022/09/17 00:12:59;;;;;;;0.35;0.35;;;;;;;;;;1861837;76;26332;-60
2022/09/17 00:15:26;;;;;;;0.30;0.30;;;;;;;;;;1881426;75;26338;-58
2022/09/17 00:17:56;;;;;;;0.40;0.40;;;;;;;;;;1858314;76;26241;-59
2022/09/17 00:20:25;;;;;;;0.30;0.30;;;;;;;;;;1871806;75;26309;-58
2022/09/17 00:22:53;;;;;;;0.47;0.30;;;;;;;;;;1878095;76;26324;-60
2022/09/17 00:25:20;;;;;;;0.40;0.40;;;;;;;;;;1864305;75;26341;-60
2022/09/17 00:27:47;;;;;;;0.30;0.30;;;;;;;;;;1865583;76;26292;-59
2022/09/17 00:30:14;;;;;;;0.20;0.20;;;;;;;;;;1858773;76;26243;-56
2022/09/17 00:32:42;;;;;;;0.35;0.35;;;;;;;;;;1864206;76;26251;-57
2022/09/17 00:35:09;;;;;;;0.20;0.20;;;;;;;;;;1849589;76;26250;-58
2022/09/17 00:37:36;;;;;;;0.28;0.28;;;;;;;;;;1862490;75;26803;-59
2022/09/17 00:40:04;;;;;;;0.25;0.25;;;;;;;;;;1854640;76;26746;-59
2022/09/17 00:42:31;;;;;;;0.40;0.40;;;;;;;;;;1849315;76;26206;-57
2022/09/17 00:44:59;;;;;;;0.30;0.30;;;;;;;;;;1856842;76;26320;-59
2022/09/17 00:47:35;;;;;;;0.30;0.30;;;;;;;;;;1864057;76;26274;-59
2022/09/17 00:50:03;;;;;;;0.28;0.28;;;;;;;;;;1864088;76;26195;-59
2022/09/17 00:52:35;;;;;;;0.30;0.30;;;;;;;;;;1856302;76;26356;-59
2022/09/17 00:55:04;;;;;;;0.20;0.20;;;;;;;;;;1871732;75;26204;-59
2022/09/17 00:57:31;;;;;;;0.20;0.20;;;;;;;;;;1880273;75;26207;-58
2022/09/17 00:59:59;;;;;;;0.30;0.30;;;;;;;;;;1878854;76;26792;-60
2022/09/17 01:02:27;;;;;;;0.20;0.20;;;;;;;;;;1865717;76;26275;-56
2022/09/17 01:04:55;;;;;;;0.30;0.30;;;;;;;;;;1865607;76;26723;-59
2022/09/17 01:07:33;;;;;;;0.20;0.20;;;;;;;;;;1880386;76;26358;-59
2022/09/17 01:10:08;;;;;;;0.20;0.20;;;;;;;;;;1850793;75;26320;-59
2022/09/17 01:12:39;;;;;;;0.20;0.20;;;;;;;;;;1861530;76;26284;-56
2022/09/17 01:15:20;;;;;;;0.20;0.20;;;;;;;;;;1871204;76;26351;-57
2022/09/17 01:17:48;;;;;;;0.65;0.20;;;;;;;;;;1870914;76;26183;-58
2022/09/17 01:20:20;;;;;;;0.10;0.10;;;;;;;;;;1867716;76;26261;-58
2022/09/17 01:22:52;;;;;;;0.53;0.20;;;;;;;;;;1845942;76;26274;-58
2022/09/17 01:25:27;;;;;;;0.20;0.20;;;;;;;;;;1871191;75;26804;-60
2022/09/17 01:28:08;;;;;;;0.10;0.10;;;;;;;;;;1872366;75;26344;-58
2022/09/17 01:30:39;;;;;;;6.30;0.30;;;;;;;;;;1859998;76;26383;-55
2022/09/17 01:33:08;;;;;;;0.20;0.20;;;;;;;;;;1870055;75;26316;-58
2022/09/17 01:35:37;;;;;;;0.10;0.10;;;;;;;;;;1865830;76;26277;-58
2022/09/17 01:38:10;;;;;;;0.57;0.20;;;;;;;;;;1867256;76;26719;-56
2022/09/17 01:40:42;;;;;;;0.28;0.28;;;;;;;;;;1856624;76;26262;-57
2022/09/17 01:43:11;;;;;;;0.10;0.10;;;;;;;;;;1855772;76;26246;-58
2022/09/17 01:45:39;;;;;;;0.30;0.30;;;;;;;;;;1825287;76;26933;-57
2022/09/17 01:48:11;;;;;;;0.10;0.10;;;;;;;;;;1858274;76;26722;-58
2022/09/17 01:50:58;;;;;;;0.15;0.15;;;;;;;;;;1860392;76;27380;-59
2022/09/17 01:53:30;;;;;;;0.20;0.20;;;;;;;;;;1861364;76;26309;-58
2022/09/17 01:55:59;;;;;;;0.15;0.15;;;;;;;;;;1880671;76;26245;-58
2022/09/17 01:58:28;;;;;;;0.10;0.10;;;;;;;;;;1858599;76;27355;-57
2022/09/17 02:00:57;;;;;;;0.53;0.20;;;;;;;;;;1851333;75;27455;-58
2022/09/17 02:03:26;;;;;;;0.20;0.20;;;;;;;;;;1867260;76;26259;-58
2022/09/17 02:05:55;;;;;;;0.20;0.20;;;;;;;;;;1877712;76;26632;-58
2022/09/17 02:08:27;;;;;;;0.20;0.20;;;;;;;;;;1859933;75;26242;-57
2022/09/17 02:11:02;;;;;;;0.33;0.20;;;;;;;;;;1855719;76;26734;-58
2022/09/17 02:13:39;;;;;;;0.25;0.25;;;;;;;;;;1858975;76;26341;-57
2022/09/17 02:16:08;;;;;;;0.30;0.30;;;;;;;;;;1866677;76;26733;-55
2022/09/17 02:18:37;;;;;;;0.23;0.20;;;;;;;;;;1862126;76;26700;-56
2022/09/17 02:21:13;;;;;;;0.20;0.20;;;;;;;;;;1860034;76;26242;-58
2022/09/17 02:23:52;;;;;;;0.30;0.30;;;;;;;;;;1862774;75;26285;-58
2022/09/17 02:26:20;;;;;;;0.15;0.15;;;;;;;;;;1867679;76;26288;-58
2022/09/17 02:28:49;;;;;;;0.50;0.20;;;;;;;;;;1877086;76;26258;-55
2022/09/17 02:31:16;;;;;;;0.20;0.20;;;;;;;;;;1872967;76;26718;-57
2022/09/17 02:33:45;;;;;;;0.15;0.15;;;;;;;;;;1872026;76;26285;-56
2022/09/17 02:36:12;;;;;;;0.23;0.23;;;;;;;;;;1867962;75;26267;-59
2022/09/17 02:38:41;;;;;;;0.28;0.20;;;;;;;;;;1867757;76;26249;-58
2022/09/17 02:41:16;;;;;;;0.00;0.00;;;;;;;;;;1852514;76;26241;-58
2022/09/17 02:43:55;;;;;;;0.20;0.20;;;;;;;;;;1850485;76;26285;-57
2022/09/17 02:46:30;;;;;;;0.10;0.10;;;;;;;;;;1856889;76;26352;-58
2022/09/17 02:49:15;;;;;;;0.10;0.10;;;;;;;;;;1849787;76;26192;-58
2022/09/17 02:51:52;;;;;;;0.13;0.13;;;;;;;;;;1862190;75;26253;-56
2022/09/17 02:54:33;;;;;;;0.20;0.20;;;;;;;;;;1852207;75;26249;-59
2022/09/17 02:57:05;;;;;;;0.10;0.10;;;;;;;;;;1853576;76;26713;-60
2022/09/17 02:59:42;;;;;;;0.10;0.10;;;;;;;;;;1871019;75;26242;-58
2022/09/17 03:02:20;;;;;;;0.20;0.20;;;;;;;;;;1849078;76;26254;-58
2022/09/17 03:04:49;;;;;;;0.65;0.10;;;;;;;;;;1884690;75;26227;-59
2022/09/17 03:07:17;;;;;;;0.20;0.20;;;;;;;;;;1881918;75;26515;-58
2022/09/17 03:09:44;;;;;;;0.28;0.20;;;;;;;;;;1863376;75;26194;-58
2022/09/17 03:12:12;;;;;;;0.10;0.10;;;;;;;;;;1871611;75;26203;-58
2022/09/17 03:14:39;;;;;;;0.13;0.13;;;;;;;;;;1849277;76;26331;-59
2022/09/17 03:17:06;;;;;;;0.20;0.20;;;;;;;;;;1864924;76;26337;-60
2022/09/17 03:19:34;;;;;;;0.10;0.10;;;;;;;;;;1858526;76;26348;-61
2022/09/17 03:22:01;;;;;;;0.10;0.10;;;;;;;;;;1858508;76;26327;-61
2022/09/17 03:24:29;;;;;;;0.20;0.20;;;;;;;;;;1871836;76;26238;-57
2022/09/17 03:26:56;;;;;;;0.20;0.20;;;;;;;;;;1861227;76;26754;-57
2022/09/17 03:29:23;;;;;;;0.20;0.20;;;;;;;;;;1870640;76;26847;-58
2022/09/17 03:31:50;;;;;;;0.10;0.10;;;;;;;;;;1849038;76;26292;-59
2022/09/17 03:34:18;;;;;;;0.10;0.10;;;;;;;;;;1852583;76;26233;-57
2022/09/17 03:36:45;;;;;;;0.20;0.20;;;;;;;;;;1859012;76;26406;-59
2022/09/17 03:39:12;;;;;;;0.15;0.15;;;;;;;;;;1877057;76;26337;-59
2022/09/17 03:41:40;;;;;;;0.20;0.20;;;;;;;;;;1872572;76;26246;-59
2022/09/17 03:44:09;;;;;;;0.10;0.10;;;;;;;;;;1864442;76;26638;-56
2022/09/17 03:46:36;;;;;;;0.15;0.10;;;;;;;;;;1882867;75;26195;-58
2022/09/17 03:49:04;;;;;;;0.10;0.10;;;;;;;;;;1863148;76;26612;-58
2022/09/17 03:51:31;;;;;;;0.17;0.17;;;;;;;;;;1859673;76;27153;-58
2022/09/17 03:53:58;;;;;;;0.10;0.10;;;;;;;;;;1871797;75;26257;-59
2022/09/17 03:56:25;;;;;;;0.17;0.17;;;;;;;;;;1863848;76;26192;-58
2022/09/17 03:58:54;;;;;;;0.10;0.10;;;;;;;;;;1870820;76;26254;-58
2022/09/17 04:01:21;;;;;;;0.25;0.25;;;;;;;;;;1865432;76;26313;-58
2022/09/17 04:03:49;;;;;;;0.20;0.20;;;;;;;;;;1860255;76;26312;-59
2022/09/17 04:06:16;;;;;;;0.20;0.20;;;;;;;;;;1878384;76;26231;-59
2022/09/17 04:08:43;;;;;;;0.15;0.15;;;;;;;;;;1878870;76;26329;-59
2022/09/17 04:11:11;;;;;;;0.20;0.20;;;;;;;;;;1876893;76;26522;-59
2022/09/17 04:13:38;;;;;;;0.20;0.20;;;;;;;;;;1873389;76;26255;-58
2022/09/17 04:16:05;;;;;;;0.30;0.30;;;;;;;;;;1860843;76;26191;-60
2022/09/17 04:18:33;;;;;;;1.22;0.20;;;;;;;;;;1863071;76;27416;-59
2022/09/17 04:21:00;;;;;;;0.20;0.20;;;;;;;;;;1864932;76;26312;-60
2022/09/17 04:23:28;;;;;;;0.20;0.20;;;;;;;;;;1858155;76;26314;-60
2022/09/17 04:25:55;;;;;;;0.10;0.10;;;;;;;;;;1859577;76;26250;-59
2022/09/17 04:28:22;;;;;;;0.10;0.10;;;;;;;;;;1882951;75;26360;-59
2022/09/17 04:30:50;;;;;;;0.35;0.25;;;;;;;;;;1875956;75;27204;-59
2022/09/17 04:33:17;;;;;;;0.20;0.20;;;;;;;;;;1864496;74;26747;-59
2022/09/17 04:35:44;;;;;;;0.10;0.10;;;;;;;;;;1864476;75;26273;-58
2022/09/17 04:38:17;;;;;;;0.10;0.10;;;;;;;;;;1869923;75;26274;-59
2022/09/17 04:40:41;;;;;;;0.20;0.20;;;;;;;;;;1895071;74;26392;-59
2022/09/17 04:43:09;;;;;;;0.40;0.20;;;;;;;;;;1882776;75;26285;-59
2022/09/17 04:45:36;;;;;;;0.20;0.20;;;;;;;;;;1887257;74;26561;-59
2022/09/17 04:48:04;;;;;;;0.10;0.10;;;;;;;;;;1895202;75;26239;-59
2022/09/17 04:50:32;;;;;;;0.15;0.15;;;;;;;;;;1875601;75;26776;-59
2022/09/17 04:52:59;;;;;;;0.10;0.10;;;;;;;;;;1896238;75;26230;-59
2022/09/17 04:55:26;;;;;;;0.10;0.10;;;;;;;;;;1887476;75;26272;-59
2022/09/17 04:57:54;;;;;;;0.30;0.30;;;;;;;;;;1874292;75;26301;-58
2022/09/17 05:00:22;;;;;;;0.20;0.20;;;;;;;;;;1882876;75;26289;-60
2022/09/17 05:02:50;;;;;;;0.10;0.10;;;;;;;;;;1884001;75;26255;-59
2022/09/17 05:05:18;;;;;;;0.20;0.20;;;;;;;;;;1896249;75;26422;-58
2022/09/17 05:07:46;;;;;;;0.17;0.17;;;;;;;;;;1896571;75;26231;-60
2022/09/17 05:10:15;;;;;;;0.20;0.20;;;;;;;;;;1896242;75;26246;-59
2022/09/17 05:12:44;;;;;;;0.40;0.25;;;;;;;;;;1896648;75;26655;-60
2022/09/17 05:15:11;;;;;;;0.20;0.20;;;;;;;;;;1895158;75;26381;-58
2022/09/17 05:17:38;;;;;;;0.20;0.20;;;;;;;;;;1901693;75;26256;-59
2022/09/17 05:20:06;;;;;;;0.20;0.20;;;;;;;;;;1889295;75;26305;-59
2022/09/17 05:22:33;;;;;;;0.90;0.53;;;;;;;;;;1864458;75;26371;-56
2022/09/17 05:25:01;;;;;;;1.12;0.20;;;;;;;;;;1864099;75;26724;-59
2022/09/17 05:27:28;;;;;;;0.20;0.20;;;;;;;;;;1886769;75;26654;-59
2022/09/17 05:29:55;;;;;;;0.20;0.20;;;;;;;;;;1873225;74;26859;-59
2022/09/17 05:32:22;;;;;;;0.10;0.10;;;;;;;;;;1882715;75;26825;-59
2022/09/17 05:34:50;;;;;;;0.20;0.20;;;;;;;;;;1885673;75;26647;-59
2022/09/17 05:37:17;;;;;;;0.10;0.10;;;;;;;;;;1881277;75;26317;-58
2022/09/17 05:39:45;;;;;;;0.17;0.17;;;;;;;;;;1877185;75;26334;-60
2022/09/17 05:42:12;;;;;;;0.20;0.20;;;;;;;;;;1879133;75;26733;-58
2022/09/17 05:44:39;;;;;;;0.20;0.20;;;;;;;;;;1878397;74;26686;-59
2022/09/17 05:47:07;;;;;;;0.55;0.20;;;;;;;;;;1863452;75;26698;-59
2022/09/17 05:49:34;;;;;;;0.13;0.13;;;;;;;;;;1863545;75;26234;-57
2022/09/17 05:52:02;;;;;;;0.15;0.15;;;;;;;;;;1893150;75;26485;-60
2022/09/17 05:54:29;;;;;;;0.10;0.10;;;;;;;;;;1867640;75;26815;-59
2022/09/17 05:56:57;;;;;;;0.10;0.10;;;;;;;;;;1873531;75;26249;-60
2022/09/17 05:59:24;;;;;;;0.20;0.20;;;;;;;;;;1868924;75;26300;-60
2022/09/17 06:01:51;;;;;;;0.20;0.20;;;;;;;;;;1882052;75;26708;-59
2022/09/17 06:04:19;;;;;;;0.10;0.10;;;;;;;;;;1880028;75;26812;-58
2022/09/17 06:06:46;;;;;;;0.20;0.20;;;;;;;;;;1881846;75;27568;-59
2022/09/17 06:09:13;;;;;;;0.10;0.10;;;;;;;;;;1888434;75;26816;-59
2022/09/17 06:11:40;;;;;;;0.20;0.20;;;;;;;;;;1879031;75;26754;-59
2022/09/17 06:14:08;;;;;;;0.20;0.20;;;;;;;;;;1873321;75;26183;-59
2022/09/17 06:16:36;;;;;;;0.30;0.30;;;;;;;;;;1870760;75;26278;-60
2022/09/17 06:19:03;;;;;;;0.17;0.17;;;;;;;;;;1891286;75;26295;-60
2022/09/17 06:21:31;;;;;;;0.28;0.28;;;;;;;;;;1871141;75;27439;-58
2022/09/17 06:24:00;;;;;;;0.10;0.10;;;;;;;;;;1887937;75;26318;-59
2022/09/17 06:26:27;;;;;;;0.40;0.20;;;;;;;;;;1890062;75;26683;-59
2022/09/17 06:28:54;;;;;;;2.47;0.23;;;;;;;;;;1870176;75;26222;-60
2022/09/17 06:31:22;;;;;;;0.50;0.42;;;;;;;;;;1867916;76;26325;-59
2022/09/17 06:33:50;;;;;;;3.90;0.30;;;;;;;;;;1865140;74;26227;-59
2022/09/17 06:36:17;;;;;;;3.85;0.40;;;;;;;;;;1883728;75;27345;-59
2022/09/17 06:38:44;;;;;;;1.60;0.30;;;;;;;;;;1869637;76;26864;-60
2022/09/17 06:41:13;;;;;;;6.00;0.80;;;;;;;;;;1869332;76;26242;-55
2022/09/17 06:43:40;;;;;;;9.00;0.88;;;;;;;;;;1878616;76;27643;-52
2022/09/17 06:46:09;;;;;;;9.48;0.90;;;;;;;;;;1867357;76;26250;-57
2022/09/17 06:48:37;;;;;;;9.15;1.05;;;;;;;;;;1873136;76;26308;-57
2022/09/17 06:51:06;;;;;;;5.15;0.70;;;;;;;;;;1877797;76;26248;-61
2022/09/17 06:53:35;;;;;;;2.62;0.60;;;;;;;;;;1864577;76;26210;-59
2022/09/17 06:56:03;;;;;;;6.45;0.70;;;;;;;;;;1869907;76;26852;-61
2022/09/17 06:58:30;;;;;;;3.90;0.60;;;;;;;;;;1875419;76;26202;-63
2022/09/17 07:01:01;;;;;;;8.23;0.70;;;;;;;;;;1863837;74;26309;-66
2022/09/17 07:03:28;;;;;;;3.67;0.55;;;;;;;;;;1871071;76;26258;-57
2022/09/17 07:05:56;;;;;;;2.90;0.50;;;;;;;;;;1885114;76;26250;-60
2022/09/17 07:08:24;;;;;;;2.70;0.45;;;;;;;;;;1884372;76;26295;-64
2022/09/17 07:10:53;;;;;;;6.17;0.70;;;;;;;;;;1874771;76;26265;-60
2022/09/17 07:13:21;;;;;;;2.87;0.50;;;;;;;;;;1870983;74;26235;-61
2022/09/17 07:15:55;;;;;;;1.07;0.40;;;;;;;;;;1867493;76;26304;-61
2022/09/17 07:18:22;;;;;;;10.10;0.55;;;;;;;;;;1867714;76;26304;-61
2022/09/17 07:20:54;;;;;;;2.15;0.40;;;;;;;;;;1868273;76;26584;-60
2022/09/17 07:23:23;;;;;;;4.42;1.07;;;;;;;;;;1881017;76;26285;-64
2022/09/17 07:26:00;;;;;;;3.12;0.42;;;;;;;;;;1864345;76;26586;-61
2022/09/17 07:28:28;;;;;;;2.17;0.40;;;;;;;;;;1864316;75;26279;-60
2022/09/17 07:30:56;;;;;;;3.15;0.20;;;;;;;;;;1855068;76;26945;-61
2022/09/17 07:33:24;;;;;;;2.05;0.57;;;;;;;;;;1867845;76;26258;-61
2022/09/17 07:35:53;;;;;;;0.65;0.30;;;;;;;;;;1870634;76;26274;-61
2022/09/17 07:38:21;;;;;;;3.40;0.50;;;;;;;;;;1868448;76;26258;-62
2022/09/17 07:40:56;;;;;;;1.22;0.40;;;;;;;;;;1867061;76;26207;-61
2022/09/17 07:43:25;;;;;;;1.65;0.35;;;;;;;;;;1857438;76;26257;-60
2022/09/17 07:45:53;;;;;;;1.07;0.40;;;;;;;;;;1867511;76;26247;-64
2022/09/17 07:48:20;;;;;;;0.42;0.20;;;;;;;;;;1869102;76;26792;-63
2022/09/17 07:50:48;;;;;;;1.82;0.50;;;;;;;;;;1859118;76;26223;-61
2022/09/17 07:53:15;;;;;;;1.50;0.30;;;;;;;;;;1861631;76;26233;-63
2022/09/17 07:55:43;;;;;;;1.85;0.50;;;;;;;;;;1861857;75;26289;-62
2022/09/17 07:58:10;;;;;;;0.30;0.25;;;;;;;;;;1863498;76;26309;-60
2022/09/17 08:00:37;;;;;;;0.53;0.30;;;;;;;;;;1849490;76;26248;-60
2022/09/17 08:03:05;;;;;;;0.47;0.20;;;;;;;;;;1871165;76;26171;-61
2022/09/17 08:05:32;;;;;;;0.65;0.40;;;;;;;;;;1870855;76;26282;-60
2022/09/17 08:07:59;;;;;;;0.20;0.20;;;;;;;;;;1876140;76;26250;-62
2022/09/17 08:10:27;;;;;;;1.02;0.30;;;;;;;;;;1865174;76;26305;-60
2022/09/17 08:12:55;;;;;;;0.30;0.30;;;;;;;;;;1876645;76;26317;-61
2022/09/17 08:15:23;;;;;;;12.05;0.42;;;;;;;;;;1871366;76;26383;-58
2022/09/17 08:17:51;;;;;;;0.45;0.20;;;;;;;;;;1859394;76;26354;-60
2022/09/17 08:20:19;;;;;;;0.13;0.13;;;;;;;;;;1866170;76;26239;-58
2022/09/17 08:22:46;;;;;;;0.80;0.20;;;;;;;;;;1870081;76;26759;-61
2022/09/17 08:25:14;;;;;;;0.17;0.17;;;;;;;;;;1872521;75;26785;-61
2022/09/17 08:27:41;;;;;;;1.05;0.20;;;;;;;;;;1861558;76;26258;-59
2022/09/17 08:30:09;;;;;;;0.50;0.20;;;;;;;;;;1874313;76;26779;-60
2022/09/17 08:32:36;;;;;;;0.93;0.40;;;;;;;;;;1879625;76;26246;-60
2022/09/17 08:35:03;;;;;;;0.42;0.30;;;;;;;;;;1889782;76;26183;-59
2022/09/17 08:37:30;;;;;;;0.70;0.30;;;;;;;;;;1864195;76;26536;-60
2022/09/17 08:39:58;;;;;;;0.60;0.40;;;;;;;;;;1859976;76;26257;-59
2022/09/17 08:42:39;;;;;;;0.28;0.28;;;;;;;;;;1857902;76;26734;-61
2022/09/17 08:45:07;;;;;;;0.30;0.30;;;;;;;;;;1880306;76;26316;-61
2022/09/17 08:47:37;;;;;;;0.57;0.17;;;;;;;;;;1864442;76;26312;-60
2022/09/17 08:50:06;;;;;;;0.20;0.20;;;;;;;;;;1866014;76;26247;-60
2022/09/17 08:52:40;;;;;;;0.42;0.30;;;;;;;;;;1866712;76;26242;-60
2022/09/17 08:55:12;;;;;;;0.10;0.10;;;;;;;;;;1862420;76;26324;-62
2022/09/17 08:57:57;;;;;;;0.35;0.25;;;;;;;;;;1866049;76;26249;-62
2022/09/17 09:00:25;;;;;;;0.20;0.20;;;;;;;;;;1857948;76;25791;-60
2022/09/17 09:03:06;;;;;;;0.10;0.10;;;;;;;;;;1858503;76;26256;-60
2022/09/17 09:05:41;;;;;;;0.10;0.10;;;;;;;;;;1859131;75;26317;-60
2022/09/17 09:08:13;;;;;;;0.30;0.30;;;;;;;;;;1868564;75;26690;-62
2022/09/17 09:10:47;;;;;;;0.20;0.20;;;;;;;;;;1843584;76;26299;-59
2022/09/17 09:13:17;;;;;;;0.17;0.17;;;;;;;;;;1880215;76;26258;-62
2022/09/17 09:15:48;;;;;;;0.30;0.30;;;;;;;;;;1885167;76;26259;-60
2022/09/17 09:18:17;;;;;;;0.10;0.10;;;;;;;;;;1884049;75;26374;-61
2022/09/17 09:20:55;;;;;;;0.20;0.20;;;;;;;;;;1875150;75;26646;-62
2022/09/17 09:23:39;;;;;;;0.10;0.10;;;;;;;;;;1874839;76;26254;-60
2022/09/17 09:26:16;;;;;;;0.23;0.23;;;;;;;;;;1877613;76;26321;-64
2022/09/17 09:29:01;;;;;;;0.25;0.25;;;;;;;;;;1871393;75;26628;-59
2022/09/17 09:31:35;;;;;;;0.17;0.10;;;;;;;;;;1874043;75;26234;-60
2022/09/17 09:34:03;;;;;;;0.10;0.10;;;;;;;;;;1897640;74;26390;-62
2022/09/17 09:36:32;;;;;;;0.15;0.15;;;;;;;;;;1873079;74;26720;-59
2022/09/17 09:39:01;;;;;;;0.20;0.20;;;;;;;;;;1879846;75;26227;-60
2022/09/17 09:41:30;;;;;;;0.20;0.20;;;;;;;;;;1873634;75;26439;-60
2022/09/17 09:44:02;;;;;;;0.10;0.10;;;;;;;;;;1896240;75;26286;-61
2022/09/17 09:46:31;;;;;;;0.30;0.30;;;;;;;;;;1892291;75;26378;-60
2022/09/17 09:49:12;;;;;;;0.17;0.17;;;;;;;;;;1879112;75;26709;-62
2022/09/17 09:51:43;;;;;;;0.10;0.10;;;;;;;;;;1886336;75;26255;-59
2022/09/17 09:54:12;;;;;;;0.28;0.28;;;;;;;;;;1887087;75;26648;-60
2022/09/17 09:56:44;;;;;;;0.15;0.15;;;;;;;;;;1890717;75;26344;-60
2022/09/17 09:59:12;;;;;;;0.10;0.10;;;;;;;;;;1895430;75;26311;-59
2022/09/17 10:01:41;;;;;;;0.20;0.20;;;;;;;;;;1872958;75;26317;-64
2022/09/17 10:04:22;;;;;;;0.17;0.17;;;;;;;;;;1878739;75;26930;-61
2022/09/17 10:06:50;;;;;;;0.30;0.30;;;;;;;;;;1877761;75;26375;-60
2022/09/17 10:09:20;;;;;;;0.85;0.20;;;;;;;;;;1875976;75;26234;-60
2022/09/17 10:11:55;;;;;;;0.20;0.20;;;;;;;;;;1867491;75;26310;-59
2022/09/17 10:14:26;;;;;;;0.30;0.30;;;;;;;;;;1891628;74;26853;-61
2022/09/17 10:17:12;;;;;;;0.20;0.20;;;;;;;;;;1885349;75;26280;-62
2022/09/17 10:19:40;;;;;;;0.30;0.30;;;;;;;;;;1877708;75;26314;-60
2022/09/17 10:22:20;;;;;;;0.85;0.20;;;;;;;;;;1876159;75;26738;-51
2022/09/17 10:24:48;;;;;;;0.23;0.23;;;;;;;;;;1881880;75;26187;-59
2022/09/17 10:27:16;;;;;;;0.60;0.40;;;;;;;;;;1879706;75;26708;-54
2022/09/17 10:29:45;;;;;;;0.30;0.30;;;;;;;;;;1876663;74;26738;-59
2022/09/17 10:32:16;;;;;;;0.23;0.23;;;;;;;;;;1888173;76;26726;-61
2022/09/17 10:35:03;;;;;;;0.30;0.30;;;;;;;;;;1881881;76;26281;-59
2022/09/17 10:37:49;;;;;;;0.60;0.30;;;;;;;;;;1866308;76;26274;-60
2022/09/17 10:40:21;;;;;;;0.40;0.30;;;;;;;;;;1870800;74;26711;-59
2022/09/17 10:42:49;;;;;;;1.85;0.35;;;;;;;;;;1870672;76;26706;-61
2022/09/17 10:45:26;;;;;;;2.08;0.60;;;;;;;;;;1861701;74;26250;-49
2022/09/17 10:47:54;;;;;;;0.55;0.55;;;;;;;;;;1876581;74;26243;-51
2022/09/17 10:50:23;;;;;;;2.72;0.50;;;;;;;;;;1882003;76;26304;-48
2022/09/17 10:52:52;;;;;;;0.40;0.40;;;;;;;;;;1871138;74;26270;-48
2022/09/17 10:55:33;;;;;;;0.95;0.60;;;;;;;;;;1882572;76;26297;-48
2022/09/17 10:58:03;;;;;;;1.57;0.50;;;;;;;;;;1872875;75;26289;-50
2022/09/17 11:00:38;;;;;;;0.95;0.50;;;;;;;;;;1864816;76;26713;-49
2022/09/17 11:03:07;;;;;;;1.95;0.50;;;;;;;;;;1888458;76;26254;-48
2022/09/17 11:05:39;;;;;;;2.27;0.57;;;;;;;;;;1869518;76;26238;-47
2022/09/17 11:08:14;;;;;;;0.53;0.50;;;;;;;;;;1870061;75;26259;-49
2022/09/17 11:10:52;;;;;;;0.78;0.50;;;;;;;;;;1858332;76;26237;-51
2022/09/17 11:13:33;;;;;;;1.85;0.47;;;;;;;;;;1863311;76;26328;-47
2022/09/17 11:16:07;;;;;;;1.72;0.40;;;;;;;;;;1812613;75;26258;-54
2022/09/17 11:18:46;;;;;;;1.42;0.30;;;;;;;;;;1859263;76;26304;-44
2022/09/17 11:21:15;;;;;;;1.05;0.60;;;;;;;;;;1881809;76;26690;-47
2022/09/17 11:23:56;;;;;;;1.35;0.40;;;;;;;;;;1855772;76;26273;-48
2022/09/17 11:26:25;;;;;;;0.42;0.40;;;;;;;;;;1857672;76;26299;-50
2022/09/17 11:29:03;;;;;;;1.05;0.30;;;;;;;;;;1859829;75;26202;-48
2022/09/17 11:31:38;;;;;;;2.08;0.47;;;;;;;;;;1887167;75;26211;-49
2022/09/17 11:34:12;;;;;;;0.80;0.60;;;;;;;;;;1882225;75;26376;-51
2022/09/17 11:36:47;;;;;;;0.93;0.40;;;;;;;;;;1888232;75;26254;-51
2022/09/17 11:39:16;;;;;;;0.72;0.40;;;;;;;;;;1876683;75;26271;-53
2022/09/17 11:41:45;;;;;;;0.95;0.40;;;;;;;;;;1885893;75;26350;-47
2022/09/17 11:44:29;;;;;;;1.35;0.47;;;;;;;;;;1865276;75;26313;-48
2022/09/17 11:47:07;;;;;;;0.35;0.20;;;;;;;;;;1870343;75;26229;-49
2022/09/17 11:49:42;;;;;;;0.40;0.40;;;;;;;;;;1869658;75;26383;-48
2022/09/17 11:52:23;;;;;;;0.95;0.37;;;;;;;;;;1887667;75;26660;-49
2022/09/17 11:54:52;;;;;;;0.30;0.30;;;;;;;;;;1867398;75;26246;-48
2022/09/17 11:57:21;;;;;;;0.50;0.50;;;;;;;;;;1882344;75;26266;-48
2022/09/17 11:59:53;;;;;;;0.37;0.37;;;;;;;;;;1877303;75;27427;-45
2022/09/17 12:02:25;;;;;;;1.20;0.40;;;;;;;;;;1884689;75;26305;-46
2022/09/17 12:04:56;;;;;;;0.30;0.30;;;;;;;;;;1814226;75;26253;-44
2022/09/17 12:07:34;;;;;;;0.20;0.20;;;;;;;;;;1877357;75;26742;-46
2022/09/17 12:10:20;;;;;;;0.30;0.30;;;;;;;;;;1866944;75;26317;-53
2022/09/17 12:12:48;;;;;;;0.90;0.40;;;;;;;;;;1871428;75;26310;-51
2022/09/17 12:15:23;;;;;;;0.55;0.47;;;;;;;;;;1870608;75;26762;-48
2022/09/17 12:17:58;;;;;;;0.50;0.50;;;;;;;;;;1886367;75;26265;-48
2022/09/17 12:20:30;;;;;;;0.30;0.30;;;;;;;;;;1871466;75;26340;-48
2022/09/17 12:22:59;;;;;;;0.60;0.30;;;;;;;;;;1873945;75;26258;-52
2022/09/17 12:25:27;;;;;;;0.55;0.50;;;;;;;;;;1872794;75;26776;-47
2022/09/17 12:28:05;;;;;;;0.30;0.30;;;;;;;;;;1866517;74;26911;-50
2022/09/17 12:30:34;;;;;;;0.33;0.33;;;;;;;;;;1862987;75;26315;-51
2022/09/17 12:33:03;;;;;;;0.30;0.30;;;;;;;;;;1885230;75;26322;-46
2022/09/17 12:35:34;;;;;;;0.37;0.37;;;;;;;;;;1873539;75;26310;-51
2022/09/17 12:38:03;;;;;;;0.30;0.30;;;;;;;;;;1871657;75;26263;-50
2022/09/17 12:40:32;;;;;;;0.47;0.37;;;;;;;;;;1874429;75;26234;-49
2022/09/17 12:43:04;;;;;;;0.53;0.20;;;;;;;;;;1873964;75;26238;-50
2022/09/17 12:45:33;;;;;;;0.50;0.30;;;;;;;;;;1863975;75;26280;-52
2022/09/17 12:48:20;;;;;;;0.40;0.40;;;;;;;;;;1865151;75;26288;-50
2022/09/17 12:50:58;;;;;;;0.30;0.30;;;;;;;;;;1878160;74;26766;-50
2022/09/17 12:53:27;;;;;;;0.40;0.40;;;;;;;;;;1869693;74;26325;-48
2022/09/17 12:55:58;;;;;;;0.30;0.30;;;;;;;;;;1884981;75;25341;-53
2022/09/17 12:58:36;;;;;;;0.23;0.23;;;;;;;;;;1889698;74;26258;-48
2022/09/17 13:01:05;;;;;;;0.30;0.30;;;;;;;;;;1872564;75;26525;-51
2022/09/17 13:03:36;;;;;;;0.40;0.40;;;;;;;;;;1873329;75;26216;-48
2022/09/17 13:06:11;;;;;;;0.33;0.33;;;;;;;;;;1875032;74;27285;-58
2022/09/17 13:08:58;;;;;;;0.55;0.40;;;;;;;;;;1882843;75;26242;-53
2022/09/17 13:11:30;;;;;;;0.50;0.50;;;;;;;;;;1887109;75;26976;-57
2022/09/17 13:14:02;;;;;;;1.25;0.50;;;;;;;;;;1884607;74;26271;-56
2022/09/17 13:16:49;;;;;;;0.40;0.40;;;;;;;;;;1892287;75;26309;-56
2022/09/17 13:19:26;;;;;;;0.40;0.40;;;;;;;;;;1870597;75;26858;-52
2022/09/17 13:21:55;;;;;;;1.22;0.60;;;;;;;;;;1876633;75;26247;-57
2022/09/17 13:24:24;;;;;;;1.57;0.40;;;;;;;;;;1876135;74;26423;-57
2022/09/17 13:26:52;;;;;;;0.65;0.35;;;;;;;;;;1888044;75;27498;-51
2022/09/17 13:29:38;;;;;;;0.30;0.30;;;;;;;;;;1884275;75;26266;-56
2022/09/17 13:32:05;;;;;;;0.40;0.40;;;;;;;;;;1874288;75;26298;-54
2022/09/17 13:34:34;;;;;;;0.40;0.40;;;;;;;;;;1880819;75;26407;-51
2022/09/17 13:37:03;;;;;;;0.40;0.40;;;;;;;;;;1874156;75;26299;-55
2022/09/17 13:39:35;;;;;;;0.40;0.40;;;;;;;;;;1882672;75;26256;-56
2022/09/17 13:42:04;;;;;;;0.40;0.40;;;;;;;;;;1864041;75;26255;-56
2022/09/17 13:44:33;;;;;;;0.68;0.40;;;;;;;;;;1892161;75;26474;-47
2022/09/17 13:47:11;;;;;;;0.40;0.35;;;;;;;;;;1879625;75;26325;-53
2022/09/17 13:49:46;;;;;;;0.60;0.60;;;;;;;;;;1884039;75;26239;-51
2022/09/17 13:52:13;;;;;;;0.60;0.60;;;;;;;;;;1891881;75;26801;-56
2022/09/17 13:54:41;;;;;;;0.50;0.50;;;;;;;;;;1888370;75;26580;-56
2022/09/17 13:57:13;;;;;;;0.50;0.50;;;;;;;;;;1874686;75;26276;-51
2022/09/17 13:59:42;;;;;;;0.72;0.50;;;;;;;;;;1889870;75;25700;-52
2022/09/17 14:02:19;;;;;;;1.32;0.40;;;;;;;;;;1890419;75;26798;-47
2022/09/17 14:04:48;;;;;;;2.25;0.50;;;;;;;;;;1887104;75;26371;-55
2022/09/17 14:07:28;;;;;;;0.85;0.60;;;;;;;;;;1889848;74;26274;-50
2022/09/17 14:09:56;;;;;;;2.65;0.80;;;;;;;;;;1885215;75;26307;-52
2022/09/17 14:12:34;;;;;;;0.55;0.55;;;;;;;;;;1886443;75;26245;-52
2022/09/17 14:15:01;;;;;;;0.60;0.60;;;;;;;;;;1871954;75;26808;-56
2022/09/17 14:17:47;;;;;;;1.60;0.60;;;;;;;;;;1894623;74;26234;-54
2022/09/17 14:20:14;;;;;;;0.75;0.70;;;;;;;;;;1892990;75;26810;-49
2022/09/17 14:22:42;;;;;;;0.50;0.50;;;;;;;;;;1884017;74;26310;-52
2022/09/17 14:25:16;;;;;;;0.47;0.47;;;;;;;;;;1873341;75;26770;-49
2022/09/17 14:27:49;;;;;;;2.72;0.45;;;;;;;;;;1884253;75;26315;-56
2022/09/17 14:30:21;;;;;;;0.50;0.50;;;;;;;;;;1887922;74;26301;-56
2022/09/17 14:32:59;;;;;;;0.47;0.40;;;;;;;;;;1874873;75;26322;-53
2022/09/17 14:35:34;;;;;;;0.45;0.45;;;;;;;;;;1869279;75;26698;-60
2022/09/17 14:38:06;;;;;;;0.30;0.30;;;;;;;;;;1864607;75;26324;-52
2022/09/17 14:40:33;;;;;;;0.25;0.25;;;;;;;;;;1868928;75;26334;-58
2022/09/17 14:43:02;;;;;;;0.42;0.42;;;;;;;;;;1875963;75;26341;-56
2022/09/17 14:45:34;;;;;;;0.40;0.40;;;;;;;;;;1870770;75;26176;-55
2022/09/17 14:48:18;;;;;;;0.50;0.50;;;;;;;;;;1873970;75;26731;-52
2022/09/17 14:50:46;;;;;;;2.25;0.30;;;;;;;;;;1858943;75;26266;-58
2022/09/17 14:53:17;;;;;;;0.40;0.40;;;;;;;;;;1872034;75;26297;-57
2022/09/17 14:55:46;;;;;;;0.30;0.30;;;;;;;;;;1871237;75;26332;-59
2022/09/17 14:58:27;;;;;;;0.50;0.50;;;;;;;;;;1848316;76;26352;-61
2022/09/17 15:00:54;;;;;;;1.00;0.40;;;;;;;;;;1870248;75;26240;-61
2022/09/17 15:03:22;;;;;;;0.40;0.40;;;;;;;;;;1860864;76;26387;-60